createdAt,value
2022-12-25T00:03:09.076Z,21.4
2022-12-25T00:08:09.058Z,21.4
2022-12-25T00:13:08.987Z,25.4
2022-12-25T00:23:08.971Z,14.4
2022-12-25T00:28:09.032Z,24.5
2022-12-25T00:33:08.960Z,18.0
2022-12-25T00:38:09.027Z,18.0
2022-12-25T00:43:08.992Z,22.4
2022-12-25T00:48:08.960Z,20.0
2022-12-25T00:53:08.971Z,26.6
2022-12-25T00:58:09.035Z,15.9
2022-12-25T01:03:09.045Z,15.2
2022-12-25T01:08:09.030Z,15.2
2022-12-25T01:13:08.985Z,18.1
2022-12-25T01:18:10.691Z,17.6
2022-12-25T01:23:08.969Z,21.1
2022-12-25T01:28:09.074Z,17.9
2022-12-25T01:33:08.993Z,14.1
2022-12-25T01:38:09.069Z,14.1
2022-12-25T01:43:12.635Z,19.4
2022-12-25T01:48:09.043Z,22.2
2022-12-25T01:58:09.073Z,21.5
2022-12-25T02:03:09.034Z,15.9
2022-12-25T02:08:09.072Z,15.9
2022-12-25T02:13:08.957Z,16.0
2022-12-25T02:18:09.079Z,18.0
2022-12-25T02:23:08.979Z,12.6
2022-12-25T02:33:08.985Z,11.5
2022-12-25T02:38:09.040Z,11.5
2022-12-25T02:43:08.982Z,21.0
2022-12-25T02:48:09.149Z,11.3
2022-12-25T02:53:08.986Z,14.8
2022-12-25T02:58:09.044Z,9.5
2022-12-25T03:03:09.068Z,11.3
2022-12-25T03:08:09.063Z,11.3
2022-12-25T03:13:08.980Z,10.2
2022-12-25T03:18:09.078Z,11.2
2022-12-25T03:23:08.984Z,14.4
2022-12-25T03:28:09.051Z,7.4
2022-12-25T03:33:29.557Z,5.7
2022-12-25T03:38:09.062Z,5.7
2022-12-25T03:43:08.984Z,8.9
2022-12-25T03:48:09.115Z,9.6
2022-12-25T03:53:09.019Z,13.7
2022-12-25T03:58:09.070Z,8.2
2022-12-25T04:03:09.020Z,10.4
2022-12-25T04:08:09.075Z,10.4
2022-12-25T04:13:08.959Z,10.3
2022-12-25T04:18:09.072Z,13.5
2022-12-25T04:23:09.017Z,9.3
2022-12-25T04:28:09.090Z,13.5
2022-12-25T04:33:09.017Z,11.3
2022-12-25T04:38:09.074Z,11.3
2022-12-25T04:43:09.010Z,12.3
2022-12-25T04:48:09.080Z,10.2
2022-12-25T04:53:09.015Z,16.1
2022-12-25T04:58:09.109Z,13.2
2022-12-25T05:03:09.202Z,11.9
2022-12-25T05:08:09.085Z,11.9
2022-12-25T05:13:09.006Z,8.7
2022-12-25T05:18:09.070Z,14.6
2022-12-25T05:23:09.010Z,10.8
2022-12-25T05:28:09.129Z,14.9
2022-12-25T05:33:09.007Z,16.8
2022-12-25T05:38:09.077Z,16.8
2022-12-25T05:43:09.003Z,20.4
2022-12-25T05:48:09.025Z,12.7
2022-12-25T05:53:09.110Z,14.2
2022-12-25T05:58:09.082Z,16.5
2022-12-25T06:03:09.178Z,16.1
2022-12-25T06:08:09.075Z,16.1
2022-12-25T06:13:09.009Z,15.3
2022-12-25T06:18:09.076Z,15.0
2022-12-25T06:23:09.084Z,17.2
2022-12-25T06:28:09.077Z,16.5
2022-12-25T06:33:09.006Z,15.5
2022-12-25T06:38:09.070Z,15.5
2022-12-25T06:43:09.008Z,12.7
2022-12-25T06:48:09.106Z,14.3
2022-12-25T06:53:09.025Z,11.6
2022-12-25T06:58:09.073Z,11.0
2022-12-25T07:03:09.065Z,12.6
2022-12-25T07:08:09.073Z,12.6
2022-12-25T07:13:09.018Z,13.0
2022-12-25T07:18:09.071Z,15.3
2022-12-25T07:23:09.043Z,12.1
2022-12-25T07:28:09.082Z,16.0
2022-12-25T07:33:09.025Z,14.7
2022-12-25T07:38:09.158Z,14.7
2022-12-25T07:43:09.043Z,11.5
2022-12-25T07:48:15.325Z,10.9
2022-12-25T07:53:09.025Z,10.8
2022-12-25T07:58:09.191Z,15.6
2022-12-25T08:03:09.226Z,13.2
2022-12-25T08:08:09.134Z,13.2
2022-12-25T08:13:13.949Z,12.0
2022-12-25T08:18:09.102Z,12.1
2022-12-25T08:23:09.042Z,12.8
2022-12-25T08:28:09.101Z,9.3
2022-12-25T08:33:09.053Z,10.3
2022-12-25T08:38:09.102Z,10.3
2022-12-25T08:43:09.039Z,15.7
2022-12-25T08:48:09.104Z,14.6
2022-12-25T08:58:09.213Z,13.8
2022-12-25T09:03:09.126Z,16.1
2022-12-25T09:08:09.117Z,16.1
2022-12-25T09:13:09.065Z,14.7
2022-12-25T09:18:09.111Z,15.9
2022-12-25T09:23:13.714Z,12.5
2022-12-25T09:28:09.246Z,15.0
2022-12-25T09:33:09.052Z,14.3
2022-12-25T09:38:09.133Z,14.3
2022-12-25T09:43:09.061Z,13.7
2022-12-25T09:48:09.141Z,16.9
2022-12-25T09:53:09.060Z,16.1
2022-12-25T09:58:09.141Z,15.8
2022-12-25T10:03:09.291Z,13.1
2022-12-25T10:08:09.144Z,13.1
2022-12-25T10:13:09.063Z,16.9
2022-12-25T10:18:09.135Z,14.0
2022-12-25T10:23:09.070Z,16.6
2022-12-25T10:28:09.176Z,17.8
2022-12-25T10:33:12.140Z,13.8
2022-12-25T10:38:09.134Z,13.8
2022-12-25T10:43:09.065Z,17.1
2022-12-25T10:48:09.138Z,21.7
2022-12-25T10:53:09.110Z,18.3
2022-12-25T10:58:09.142Z,18.4
2022-12-25T11:03:09.200Z,24.2
2022-12-25T11:08:09.138Z,24.2
2022-12-25T11:13:09.063Z,18.0
2022-12-25T11:18:09.136Z,18.1
2022-12-25T11:23:09.068Z,25.0
2022-12-25T11:28:09.134Z,16.4
2022-12-25T11:33:09.051Z,18.4
2022-12-25T11:38:09.134Z,18.4
2022-12-25T11:43:09.079Z,27.0
2022-12-25T11:48:09.135Z,17.4
2022-12-25T11:53:09.077Z,20.5
2022-12-25T11:58:09.129Z,23.2
2022-12-25T12:03:09.223Z,21.8
2022-12-25T12:13:09.080Z,17.6
2022-12-25T12:18:09.135Z,16.2
2022-12-25T12:23:09.082Z,18.3
2022-12-25T12:28:09.137Z,21.3
2022-12-25T12:33:09.076Z,19.4
2022-12-25T12:38:09.169Z,19.4
2022-12-25T12:43:09.117Z,21.6
2022-12-25T12:48:09.175Z,14.2
2022-12-25T12:53:09.077Z,18.8
2022-12-25T12:58:09.139Z,15.4
2022-12-25T13:03:09.236Z,20.6
2022-12-25T13:08:09.133Z,20.6
2022-12-25T13:13:09.079Z,17.9
2022-12-25T13:18:09.171Z,17.4
2022-12-25T13:23:09.094Z,12.3
2022-12-25T13:28:09.176Z,17.2
2022-12-25T13:33:09.152Z,15.4
2022-12-25T13:43:09.222Z,15.2
2022-12-25T13:53:09.099Z,16.0
2022-12-25T13:58:09.185Z,12.6
2022-12-25T14:03:09.167Z,12.6
2022-12-25T14:13:09.141Z,12.8
2022-12-25T14:18:09.136Z,19.8
2022-12-25T14:28:09.149Z,14.2
2022-12-25T14:33:09.078Z,14.2
2022-12-25T14:38:09.185Z,12.4
2022-12-25T14:48:09.179Z,9.3
2022-12-25T14:53:09.106Z,14.3
2022-12-25T15:08:09.250Z,14.6
2022-12-25T15:13:09.088Z,8.8
2022-12-25T15:18:09.190Z,14.8
2022-12-25T15:23:19.811Z,18.7
2022-12-25T15:33:09.109Z,12.1
2022-12-25T15:38:09.164Z,13.1
2022-12-25T15:43:20.873Z,18.0
2022-12-25T15:48:09.197Z,12.1
2022-12-25T15:53:09.106Z,14.0
2022-12-25T15:58:09.205Z,18.7
2022-12-25T16:03:09.357Z,18.7
2022-12-25T16:13:09.104Z,14.8
2022-12-25T16:18:09.200Z,12.0
2022-12-25T16:23:09.121Z,22.1
2022-12-25T16:28:09.172Z,16.4
2022-12-25T16:33:09.159Z,16.4
2022-12-25T16:43:09.124Z,13.5
2022-12-25T16:48:09.181Z,10.1
2022-12-25T16:53:09.121Z,8.9
2022-12-25T16:58:09.167Z,11.3
2022-12-25T17:03:09.203Z,11.3
2022-12-25T17:08:09.167Z,15.7
2022-12-25T17:13:09.126Z,18.9
2022-12-25T17:18:09.270Z,13.9
2022-12-25T17:23:09.124Z,17.0
2022-12-25T17:28:09.177Z,12.4
2022-12-25T17:38:09.212Z,8.0
2022-12-25T17:43:09.114Z,13.7
2022-12-25T17:48:09.180Z,12.1
2022-12-25T17:53:09.129Z,16.2
2022-12-25T17:58:09.218Z,10.1
2022-12-25T18:03:11.499Z,10.1
2022-12-25T18:08:09.172Z,20.8
2022-12-25T18:13:09.120Z,15.8
2022-12-25T18:18:09.207Z,26.2
2022-12-25T18:23:09.135Z,17.4
2022-12-25T18:28:09.204Z,13.6
2022-12-25T18:38:09.243Z,14.5
2022-12-25T18:43:09.136Z,17.0
2022-12-25T18:48:09.187Z,12.9
2022-12-25T18:53:09.141Z,23.1
2022-12-25T18:58:09.228Z,36.8
2022-12-25T19:08:09.228Z,59.3
2022-12-25T19:13:09.140Z,28.1
2022-12-25T19:18:09.230Z,14.1
2022-12-25T19:23:09.181Z,10.7
2022-12-25T19:28:09.242Z,10.4
2022-12-25T19:33:13.952Z,10.4
2022-12-25T19:38:09.301Z,11.5
2022-12-25T19:43:09.177Z,13.0
2022-12-25T19:48:09.237Z,8.6
2022-12-25T19:53:09.152Z,8.5
2022-12-25T19:58:09.200Z,7.1
2022-12-25T20:03:09.309Z,7.1
2022-12-25T20:08:09.244Z,8.4
2022-12-25T20:13:09.158Z,6.2
2022-12-25T20:18:09.215Z,6.8
2022-12-25T20:23:09.172Z,6.3
2022-12-25T20:28:09.257Z,5.7
2022-12-25T20:33:09.175Z,5.7
2022-12-25T20:38:09.248Z,4.6
2022-12-25T20:43:09.166Z,7.6
2022-12-25T20:48:09.259Z,8.0
2022-12-25T20:53:09.193Z,5.1
2022-12-25T20:58:09.236Z,8.1
2022-12-25T21:03:09.284Z,8.1
2022-12-25T21:08:09.259Z,23.0
2022-12-25T21:13:09.180Z,16.6
2022-12-25T21:18:09.257Z,7.2
2022-12-25T21:28:09.282Z,6.8
2022-12-25T21:33:09.209Z,6.8
2022-12-25T21:38:09.238Z,7.1
2022-12-25T21:43:09.195Z,7.1
2022-12-25T21:48:09.290Z,10.5
2022-12-25T21:53:09.196Z,10.8
2022-12-25T21:58:09.272Z,14.4
2022-12-25T22:03:09.278Z,14.4
2022-12-25T22:08:09.298Z,10.3
2022-12-25T22:13:09.293Z,8.1
2022-12-25T22:18:09.260Z,8.7
2022-12-25T22:23:09.211Z,10.2
2022-12-25T22:28:09.316Z,10.4
2022-12-25T22:33:09.215Z,10.4
2022-12-25T22:38:09.358Z,7.5
2022-12-25T22:43:09.218Z,8.3
2022-12-25T22:48:09.292Z,9.7
2022-12-25T22:53:09.219Z,7.4
2022-12-25T22:58:09.378Z,9.3
2022-12-25T23:03:09.305Z,9.3
2022-12-25T23:08:09.314Z,11.9
2022-12-25T23:13:09.229Z,9.7
2022-12-25T23:18:09.283Z,8.9
2022-12-25T23:23:09.232Z,11.5
2022-12-25T23:33:09.235Z,9.7
2022-12-25T23:38:09.326Z,8.1
2022-12-25T23:53:09.231Z,8.8
2022-12-25T23:58:09.300Z,11.0
